sensor_id;sensor_type;location;lat;lon;timestamp;temperature;humidity
4697;DHT22;2362;50.780;0.292;2024-03-25T00:01:22;7.10;99.90
4697;DHT22;2362;50.780;0.292;2024-03-25T00:03:48;7.10;99.90
4697;DHT22;2362;50.780;0.292;2024-03-25T00:06:14;7.10;99.90
4697;DHT22;2362;50.780;0.292;2024-03-25T00:08:39;7.10;99.90
4697;DHT22;2362;50.780;0.292;2024-03-25T00:11:05;7.10;99.90
4697;DHT22;2362;50.780;0.292;2024-03-25T00:13:30;7.10;99.90
4697;DHT22;2362;50.780;0.292;2024-03-25T00:15:56;7.10;99.90
4697;DHT22;2362;50.780;0.292;2024-03-25T00:18:22;7.00;99.90
4697;DHT22;2362;50.780;0.292;2024-03-25T00:20:47;6.90;99.90
4697;DHT22;2362;50.780;0.292;2024-03-25T00:23:13;6.90;99.90
4697;DHT22;2362;50.780;0.292;2024-03-25T00:25:39;6.80;99.90
4697;DHT22;2362;50.780;0.292;2024-03-25T00:28:07;6.80;99.90
4697;DHT22;2362;50.780;0.292;2024-03-25T00:30:32;6.90;99.90
4697;DHT22;2362;50.780;0.292;2024-03-25T00:32:58;6.90;99.90
4697;DHT22;2362;50.780;0.292;2024-03-25T00:35:24;7.00;99.90
4697;DHT22;2362;50.780;0.292;2024-03-25T00:37:49;7.00;99.90
4697;DHT22;2362;50.780;0.292;2024-03-25T00:40:15;7.00;99.90
4697;DHT22;2362;50.780;0.292;2024-03-25T00:42:40;6.90;99.90
4697;DHT22;2362;50.780;0.292;2024-03-25T00:45:06;6.90;99.90
4697;DHT22;2362;50.780;0.292;2024-03-25T00:47:33;6.80;99.90
4697;DHT22;2362;50.780;0.292;2024-03-25T00:49:58;6.80;99.90
4697;DHT22;2362;50.780;0.292;2024-03-25T00:52:24;6.80;99.90
4697;DHT22;2362;50.780;0.292;2024-03-25T00:54:49;6.80;99.90
4697;DHT22;2362;50.780;0.292;2024-03-25T00:57:15;6.80;99.90
4697;DHT22;2362;50.780;0.292;2024-03-25T00:59:41;6.80;99.90
4697;DHT22;2362;50.780;0.292;2024-03-25T01:02:07;6.70;99.90
4697;DHT22;2362;50.780;0.292;2024-03-25T01:04:33;6.80;99.90
4697;DHT22;2362;50.780;0.292;2024-03-25T01:06:59;6.80;99.90
4697;DHT22;2362;50.780;0.292;2024-03-25T01:09:25;6.80;99.90
4697;DHT22;2362;50.780;0.292;2024-03-25T01:11:51;6.80;99.90
4697;DHT22;2362;50.780;0.292;2024-03-25T01:14:17;6.90;99.90
4697;DHT22;2362;50.780;0.292;2024-03-25T01:16:42;6.90;99.90
4697;DHT22;2362;50.780;0.292;2024-03-25T01:19:08;7.00;99.90
4697;DHT22;2362;50.780;0.292;2024-03-25T01:21:35;7.00;99.90
4697;DHT22;2362;50.780;0.292;2024-03-25T01:24:01;7.00;99.90
4697;DHT22;2362;50.780;0.292;2024-03-25T01:26:27;7.10;99.90
4697;DHT22;2362;50.780;0.292;2024-03-25T01:28:54;7.10;99.90
4697;DHT22;2362;50.780;0.292;2024-03-25T01:31:45;7.20;99.90
4697;DHT22;2362;50.780;0.292;2024-03-25T01:34:10;7.10;99.90
4697;DHT22;2362;50.780;0.292;2024-03-25T01:36:36;7.10;99.90
4697;DHT22;2362;50.780;0.292;2024-03-25T01:39:02;7.10;99.90
4697;DHT22;2362;50.780;0.292;2024-03-25T01:41:30;7.20;99.90
4697;DHT22;2362;50.780;0.292;2024-03-25T01:43:56;7.20;99.90
4697;DHT22;2362;50.780;0.292;2024-03-25T01:46:21;7.20;99.90
4697;DHT22;2362;50.780;0.292;2024-03-25T01:48:48;7.20;99.90
4697;DHT22;2362;50.780;0.292;2024-03-25T01:51:17;7.20;99.90
4697;DHT22;2362;50.780;0.292;2024-03-25T01:53:44;7.20;99.90
4697;DHT22;2362;50.780;0.292;2024-03-25T01:56:10;7.20;99.90
4697;DHT22;2362;50.780;0.292;2024-03-25T01:58:38;7.10;99.90
4697;DHT22;2362;50.780;0.292;2024-03-25T02:01:04;7.10;99.90
4697;DHT22;2362;50.780;0.292;2024-03-25T02:03:30;7.10;99.90
4697;DHT22;2362;50.780;0.292;2024-03-25T02:06:22;7.00;99.90
4697;DHT22;2362;50.780;0.292;2024-03-25T02:09:14;7.00;99.90
4697;DHT22;2362;50.780;0.292;2024-03-25T02:11:41;7.00;99.90
4697;DHT22;2362;50.780;0.292;2024-03-25T02:14:07;6.90;99.90
4697;DHT22;2362;50.780;0.292;2024-03-25T02:16:32;7.00;99.90
4697;DHT22;2362;50.780;0.292;2024-03-25T02:18:58;7.00;99.90
4697;DHT22;2362;50.780;0.292;2024-03-25T02:21:24;7.10;99.90
4697;DHT22;2362;50.780;0.292;2024-03-25T02:23:53;7.20;99.90
4697;DHT22;2362;50.780;0.292;2024-03-25T02:26:20;7.30;99.90
4697;DHT22;2362;50.780;0.292;2024-03-25T02:28:46;7.30;99.90
4697;DHT22;2362;50.780;0.292;2024-03-25T02:31:11;7.40;99.90
4697;DHT22;2362;50.780;0.292;2024-03-25T02:33:37;7.40;99.90
4697;DHT22;2362;50.780;0.292;2024-03-25T02:36:03;7.50;99.90
4697;DHT22;2362;50.780;0.292;2024-03-25T02:38:29;7.60;99.90
4697;DHT22;2362;50.780;0.292;2024-03-25T02:40:54;7.60;99.90
4697;DHT22;2362;50.780;0.292;2024-03-25T02:43:20;7.60;99.90
4697;DHT22;2362;50.780;0.292;2024-03-25T02:45:46;7.70;99.90
4697;DHT22;2362;50.780;0.292;2024-03-25T02:48:12;7.60;99.90
4697;DHT22;2362;50.780;0.292;2024-03-25T02:50:38;7.70;99.90
4697;DHT22;2362;50.780;0.292;2024-03-25T02:53:03;7.70;99.90
4697;DHT22;2362;50.780;0.292;2024-03-25T02:55:29;7.70;99.90
4697;DHT22;2362;50.780;0.292;2024-03-25T02:57:54;7.70;99.90
4697;DHT22;2362;50.780;0.292;2024-03-25T03:00:20;7.70;99.90
4697;DHT22;2362;50.780;0.292;2024-03-25T03:02:46;7.60;99.90
4697;DHT22;2362;50.780;0.292;2024-03-25T03:05:11;7.60;99.90
4697;DHT22;2362;50.780;0.292;2024-03-25T03:07:37;7.70;99.90
4697;DHT22;2362;50.780;0.292;2024-03-25T03:10:03;7.70;99.90
4697;DHT22;2362;50.780;0.292;2024-03-25T03:12:28;7.80;99.90
4697;DHT22;2362;50.780;0.292;2024-03-25T03:15:19;7.70;99.90
4697;DHT22;2362;50.780;0.292;2024-03-25T03:18:10;7.80;99.90
4697;DHT22;2362;50.780;0.292;2024-03-25T03:20:39;7.80;99.90
4697;DHT22;2362;50.780;0.292;2024-03-25T03:23:05;7.80;99.90
4697;DHT22;2362;50.780;0.292;2024-03-25T03:25:30;7.90;99.90
4697;DHT22;2362;50.780;0.292;2024-03-25T03:27:56;7.90;99.90
4697;DHT22;2362;50.780;0.292;2024-03-25T03:30:22;7.90;99.90
4697;DHT22;2362;50.780;0.292;2024-03-25T03:32:47;7.90;99.90
4697;DHT22;2362;50.780;0.292;2024-03-25T03:35:13;7.90;99.90
4697;DHT22;2362;50.780;0.292;2024-03-25T03:37:38;7.90;99.90
4697;DHT22;2362;50.780;0.292;2024-03-25T03:40:04;7.90;99.90
4697;DHT22;2362;50.780;0.292;2024-03-25T03:42:31;7.90;99.90
4697;DHT22;2362;50.780;0.292;2024-03-25T03:44:57;7.90;99.90
4697;DHT22;2362;50.780;0.292;2024-03-25T03:47:23;7.90;99.90
4697;DHT22;2362;50.780;0.292;2024-03-25T03:49:48;8.00;99.90
4697;DHT22;2362;50.780;0.292;2024-03-25T03:52:14;8.00;99.90
4697;DHT22;2362;50.780;0.292;2024-03-25T03:54:39;8.00;99.90
4697;DHT22;2362;50.780;0.292;2024-03-25T03:57:05;8.10;99.90
4697;DHT22;2362;50.780;0.292;2024-03-25T03:59:31;8.10;99.90
4697;DHT22;2362;50.780;0.292;2024-03-25T04:01:56;8.10;99.90
4697;DHT22;2362;50.780;0.292;2024-03-25T04:04:22;8.20;99.90
4697;DHT22;2362;50.780;0.292;2024-03-25T04:06:48;8.10;99.90
4697;DHT22;2362;50.780;0.292;2024-03-25T04:09:14;8.20;99.90
4697;DHT22;2362;50.780;0.292;2024-03-25T04:11:39;8.20;99.90
4697;DHT22;2362;50.780;0.292;2024-03-25T04:14:05;8.20;99.90
4697;DHT22;2362;50.780;0.292;2024-03-25T04:16:31;8.20;99.90
4697;DHT22;2362;50.780;0.292;2024-03-25T04:18:57;8.20;99.90
4697;DHT22;2362;50.780;0.292;2024-03-25T04:21:23;8.20;99.90
4697;DHT22;2362;50.780;0.292;2024-03-25T04:23:49;8.20;99.90
4697;DHT22;2362;50.780;0.292;2024-03-25T04:26:15;8.30;99.90
4697;DHT22;2362;50.780;0.292;2024-03-25T04:28:41;8.30;99.90
4697;DHT22;2362;50.780;0.292;2024-03-25T04:31:08;8.30;99.90
4697;DHT22;2362;50.780;0.292;2024-03-25T04:33:34;8.30;99.90
4697;DHT22;2362;50.780;0.292;2024-03-25T04:36:00;8.30;99.90
4697;DHT22;2362;50.780;0.292;2024-03-25T04:38:26;8.30;99.90
4697;DHT22;2362;50.780;0.292;2024-03-25T04:40:51;8.40;99.90
4697;DHT22;2362;50.780;0.292;2024-03-25T04:43:17;8.30;99.90
4697;DHT22;2362;50.780;0.292;2024-03-25T04:45:43;8.40;99.90
4697;DHT22;2362;50.780;0.292;2024-03-25T04:48:08;8.40;99.90
4697;DHT22;2362;50.780;0.292;2024-03-25T04:50:35;8.40;99.90
4697;DHT22;2362;50.780;0.292;2024-03-25T04:53:01;8.30;99.90
4697;DHT22;2362;50.780;0.292;2024-03-25T04:55:26;8.40;99.90
4697;DHT22;2362;50.780;0.292;2024-03-25T04:57:52;8.40;99.90
4697;DHT22;2362;50.780;0.292;2024-03-25T05:00:18;8.50;99.90
4697;DHT22;2362;50.780;0.292;2024-03-25T05:02:43;8.40;99.90
4697;DHT22;2362;50.780;0.292;2024-03-25T05:05:09;8.50;99.90
4697;DHT22;2362;50.780;0.292;2024-03-25T05:07:35;8.50;99.90
4697;DHT22;2362;50.780;0.292;2024-03-25T05:10:05;8.40;99.90
4697;DHT22;2362;50.780;0.292;2024-03-25T05:12:31;8.50;99.90
4697;DHT22;2362;50.780;0.292;2024-03-25T05:14:56;8.50;99.90
4697;DHT22;2362;50.780;0.292;2024-03-25T05:17:22;8.50;99.90
4697;DHT22;2362;50.780;0.292;2024-03-25T05:19:48;8.50;99.90
4697;DHT22;2362;50.780;0.292;2024-03-25T05:22:13;8.50;99.90
4697;DHT22;2362;50.780;0.292;2024-03-25T05:24:39;8.50;99.90
4697;DHT22;2362;50.780;0.292;2024-03-25T05:27:05;8.50;99.90
4697;DHT22;2362;50.780;0.292;2024-03-25T05:29:30;8.50;99.90
4697;DHT22;2362;50.780;0.292;2024-03-25T05:32:01;8.50;99.90
4697;DHT22;2362;50.780;0.292;2024-03-25T05:34:27;8.50;99.90
4697;DHT22;2362;50.780;0.292;2024-03-25T05:36:53;8.50;99.90
4697;DHT22;2362;50.780;0.292;2024-03-25T05:39:19;8.50;99.90
4697;DHT22;2362;50.780;0.292;2024-03-25T05:41:45;8.50;99.90
4697;DHT22;2362;50.780;0.292;2024-03-25T05:44:11;8.40;99.90
4697;DHT22;2362;50.780;0.292;2024-03-25T05:46:38;8.50;99.90
4697;DHT22;2362;50.780;0.292;2024-03-25T05:49:04;8.50;99.90
4697;DHT22;2362;50.780;0.292;2024-03-25T05:51:30;8.50;99.90
4697;DHT22;2362;50.780;0.292;2024-03-25T05:53:56;8.40;99.90
4697;DHT22;2362;50.780;0.292;2024-03-25T05:56:21;8.40;99.90
4697;DHT22;2362;50.780;0.292;2024-03-25T05:59:12;8.40;99.90
4697;DHT22;2362;50.780;0.292;2024-03-25T06:02:03;8.40;99.90
4697;DHT22;2362;50.780;0.292;2024-03-25T06:04:29;8.50;99.90
4697;DHT22;2362;50.780;0.292;2024-03-25T06:06:54;8.40;99.90
4697;DHT22;2362;50.780;0.292;2024-03-25T06:09:20;8.50;99.90
4697;DHT22;2362;50.780;0.292;2024-03-25T06:11:46;8.40;99.90
4697;DHT22;2362;50.780;0.292;2024-03-25T06:14:12;8.40;99.90
4697;DHT22;2362;50.780;0.292;2024-03-25T06:16:38;8.40;99.90
4697;DHT22;2362;50.780;0.292;2024-03-25T06:19:03;8.40;99.90
4697;DHT22;2362;50.780;0.292;2024-03-25T06:21:29;8.40;99.90
4697;DHT22;2362;50.780;0.292;2024-03-25T06:23:54;8.40;99.90
4697;DHT22;2362;50.780;0.292;2024-03-25T06:26:20;8.40;99.90
4697;DHT22;2362;50.780;0.292;2024-03-25T06:28:46;8.40;99.90
4697;DHT22;2362;50.780;0.292;2024-03-25T06:31:12;8.40;99.90
4697;DHT22;2362;50.780;0.292;2024-03-25T06:33:57;8.40;99.90
4697;DHT22;2362;50.780;0.292;2024-03-25T06:37:08;8.50;99.90
4697;DHT22;2362;50.780;0.292;2024-03-25T06:39:34;8.60;99.90
4697;DHT22;2362;50.780;0.292;2024-03-25T06:41:59;8.80;99.90
4697;DHT22;2362;50.780;0.292;2024-03-25T06:44:25;9.00;99.90
4697;DHT22;2362;50.780;0.292;2024-03-25T06:46:51;9.10;99.90
4697;DHT22;2362;50.780;0.292;2024-03-25T06:49:16;9.20;99.90
4697;DHT22;2362;50.780;0.292;2024-03-25T06:51:42;9.20;99.90
4697;DHT22;2362;50.780;0.292;2024-03-25T06:54:07;9.20;99.90
4697;DHT22;2362;50.780;0.292;2024-03-25T06:56:33;9.20;99.90
4697;DHT22;2362;50.780;0.292;2024-03-25T06:58:58;9.10;99.90
4697;DHT22;2362;50.780;0.292;2024-03-25T07:01:24;9.00;99.90
4697;DHT22;2362;50.780;0.292;2024-03-25T07:03:50;9.00;99.90
4697;DHT22;2362;50.780;0.292;2024-03-25T07:06:17;9.10;99.90
4697;DHT22;2362;50.780;0.292;2024-03-25T07:08:42;9.10;99.90
4697;DHT22;2362;50.780;0.292;2024-03-25T07:11:08;9.40;99.90
4697;DHT22;2362;50.780;0.292;2024-03-25T07:13:34;9.90;99.90
4697;DHT22;2362;50.780;0.292;2024-03-25T07:15:59;10.60;99.90
4697;DHT22;2362;50.780;0.292;2024-03-25T07:18:25;11.10;99.60
4697;DHT22;2362;50.780;0.292;2024-03-25T07:20:51;11.20;98.00
4697;DHT22;2362;50.780;0.292;2024-03-25T07:23:16;10.90;98.50
4697;DHT22;2362;50.780;0.292;2024-03-25T07:25:42;10.60;99.50
4697;DHT22;2362;50.780;0.292;2024-03-25T07:28:07;10.20;99.90
4697;DHT22;2362;50.780;0.292;2024-03-25T07:30:34;10.10;99.90
4697;DHT22;2362;50.780;0.292;2024-03-25T07:32:59;9.90;99.90
4697;DHT22;2362;50.780;0.292;2024-03-25T07:35:25;9.70;99.90
4697;DHT22;2362;50.780;0.292;2024-03-25T07:37:51;9.60;99.90
4697;DHT22;2362;50.780;0.292;2024-03-25T07:40:21;9.60;99.90
4697;DHT22;2362;50.780;0.292;2024-03-25T07:43:12;9.60;99.90
4697;DHT22;2362;50.780;0.292;2024-03-25T07:45:37;9.60;99.90
4697;DHT22;2362;50.780;0.292;2024-03-25T07:48:05;9.60;99.90
4697;DHT22;2362;50.780;0.292;2024-03-25T07:50:31;9.60;99.90
4697;DHT22;2362;50.780;0.292;2024-03-25T07:52:56;9.60;99.90
4697;DHT22;2362;50.780;0.292;2024-03-25T07:55:22;9.70;99.90
4697;DHT22;2362;50.780;0.292;2024-03-25T07:57:47;9.80;99.90
4697;DHT22;2362;50.780;0.292;2024-03-25T08:00:13;9.80;99.90
4697;DHT22;2362;50.780;0.292;2024-03-25T08:02:39;9.80;99.90
4697;DHT22;2362;50.780;0.292;2024-03-25T08:05:05;9.80;99.90
4697;DHT22;2362;50.780;0.292;2024-03-25T08:07:31;9.80;99.90
4697;DHT22;2362;50.780;0.292;2024-03-25T08:09:57;9.80;99.90
4697;DHT22;2362;50.780;0.292;2024-03-25T08:12:22;9.80;99.90
4697;DHT22;2362;50.780;0.292;2024-03-25T08:14:48;9.90;99.90
4697;DHT22;2362;50.780;0.292;2024-03-25T08:17:15;10.00;99.90
4697;DHT22;2362;50.780;0.292;2024-03-25T08:19:41;10.00;99.90
4697;DHT22;2362;50.780;0.292;2024-03-25T08:22:06;10.00;99.90
4697;DHT22;2362;50.780;0.292;2024-03-25T08:24:32;10.10;99.90
4697;DHT22;2362;50.780;0.292;2024-03-25T08:26:58;10.10;99.90
4697;DHT22;2362;50.780;0.292;2024-03-25T08:29:23;10.00;99.90
4697;DHT22;2362;50.780;0.292;2024-03-25T08:31:49;10.00;99.90
4697;DHT22;2362;50.780;0.292;2024-03-25T08:34:14;10.10;99.90
4697;DHT22;2362;50.780;0.292;2024-03-25T08:36:40;10.10;99.90
4697;DHT22;2362;50.780;0.292;2024-03-25T08:39:06;10.10;99.90
4697;DHT22;2362;50.780;0.292;2024-03-25T08:41:33;10.10;99.90
4697;DHT22;2362;50.780;0.292;2024-03-25T08:44:00;10.10;99.90
4697;DHT22;2362;50.780;0.292;2024-03-25T08:46:25;10.10;99.90
4697;DHT22;2362;50.780;0.292;2024-03-25T08:48:51;10.10;99.90
4697;DHT22;2362;50.780;0.292;2024-03-25T08:51:17;10.10;99.90
4697;DHT22;2362;50.780;0.292;2024-03-25T08:53:42;10.10;99.90
4697;DHT22;2362;50.780;0.292;2024-03-25T08:56:08;10.20;99.90
4697;DHT22;2362;50.780;0.292;2024-03-25T08:58:34;10.20;99.90
4697;DHT22;2362;50.780;0.292;2024-03-25T09:01:00;10.30;99.90
4697;DHT22;2362;50.780;0.292;2024-03-25T09:03:25;10.40;99.90
4697;DHT22;2362;50.780;0.292;2024-03-25T09:05:51;10.50;99.90
4697;DHT22;2362;50.780;0.292;2024-03-25T09:08:17;10.70;99.90
4697;DHT22;2362;50.780;0.292;2024-03-25T09:10:45;10.80;99.90
4697;DHT22;2362;50.780;0.292;2024-03-25T09:13:32;11.00;99.90
4697;DHT22;2362;50.780;0.292;2024-03-25T09:15:58;11.10;99.90
4697;DHT22;2362;50.780;0.292;2024-03-25T09:18:23;11.00;99.60
4697;DHT22;2362;50.780;0.292;2024-03-25T09:20:49;11.10;99.90
4697;DHT22;2362;50.780;0.292;2024-03-25T09:23:15;11.20;99.40
4697;DHT22;2362;50.780;0.292;2024-03-25T09:25:40;11.10;99.20
4697;DHT22;2362;50.780;0.292;2024-03-25T09:28:15;11.10;99.90
4697;DHT22;2362;50.780;0.292;2024-03-25T09:30:41;11.20;98.80
4697;DHT22;2362;50.780;0.292;2024-03-25T09:33:06;11.20;99.50
4697;DHT22;2362;50.780;0.292;2024-03-25T09:35:32;11.20;99.30
4697;DHT22;2362;50.780;0.292;2024-03-25T09:37:58;11.20;99.40
4697;DHT22;2362;50.780;0.292;2024-03-25T09:40:24;11.10;99.40
4697;DHT22;2362;50.780;0.292;2024-03-25T09:42:55;11.20;99.20
4697;DHT22;2362;50.780;0.292;2024-03-25T09:45:25;11.20;99.40
4697;DHT22;2362;50.780;0.292;2024-03-25T09:47:55;11.30;98.80
4697;DHT22;2362;50.780;0.292;2024-03-25T09:50:21;11.30;98.80
4697;DHT22;2362;50.780;0.292;2024-03-25T09:52:50;11.20;99.70
4697;DHT22;2362;50.780;0.292;2024-03-25T09:55:17;11.10;97.60
4697;DHT22;2362;50.780;0.292;2024-03-25T09:57:43;11.10;98.40
4697;DHT22;2362;50.780;0.292;2024-03-25T10:00:09;11.10;99.00
4697;DHT22;2362;50.780;0.292;2024-03-25T10:02:37;11.10;99.40
4697;DHT22;2362;50.780;0.292;2024-03-25T10:05:08;11.10;99.00
4697;DHT22;2362;50.780;0.292;2024-03-25T10:07:34;11.10;98.10
4697;DHT22;2362;50.780;0.292;2024-03-25T10:10:03;11.20;97.70
4697;DHT22;2362;50.780;0.292;2024-03-25T10:12:30;11.10;98.60
4697;DHT22;2362;50.780;0.292;2024-03-25T10:14:56;11.30;98.00
4697;DHT22;2362;50.780;0.292;2024-03-25T10:17:23;11.30;98.30
4697;DHT22;2362;50.780;0.292;2024-03-25T10:19:48;11.40;97.30
4697;DHT22;2362;50.780;0.292;2024-03-25T10:22:15;11.30;97.20
4697;DHT22;2362;50.780;0.292;2024-03-25T10:24:44;11.30;98.40
4697;DHT22;2362;50.780;0.292;2024-03-25T10:27:21;11.20;97.50
4697;DHT22;2362;50.780;0.292;2024-03-25T10:29:48;11.40;98.30
4697;DHT22;2362;50.780;0.292;2024-03-25T10:32:14;11.30;96.70
4697;DHT22;2362;50.780;0.292;2024-03-25T10:34:40;11.30;97.70
4697;DHT22;2362;50.780;0.292;2024-03-25T10:37:09;11.40;97.10
4697;DHT22;2362;50.780;0.292;2024-03-25T10:39:39;11.40;96.60
4697;DHT22;2362;50.780;0.292;2024-03-25T10:42:05;11.40;97.10
4697;DHT22;2362;50.780;0.292;2024-03-25T10:44:31;11.60;97.60
4697;DHT22;2362;50.780;0.292;2024-03-25T10:47:03;11.80;96.10
4697;DHT22;2362;50.780;0.292;2024-03-25T10:49:35;11.90;96.40
4697;DHT22;2362;50.780;0.292;2024-03-25T10:52:03;11.90;95.80
4697;DHT22;2362;50.780;0.292;2024-03-25T10:54:33;12.00;96.50
4697;DHT22;2362;50.780;0.292;2024-03-25T10:56:59;11.90;95.80
4697;DHT22;2362;50.780;0.292;2024-03-25T10:59:30;12.10;96.10
4697;DHT22;2362;50.780;0.292;2024-03-25T11:01:56;12.00;95.90
4697;DHT22;2362;50.780;0.292;2024-03-25T11:04:23;12.00;95.70
4697;DHT22;2362;50.780;0.292;2024-03-25T11:06:50;12.00;96.00
4697;DHT22;2362;50.780;0.292;2024-03-25T11:09:25;11.90;96.10
4697;DHT22;2362;50.780;0.292;2024-03-25T11:11:53;12.00;96.70
4697;DHT22;2362;50.780;0.292;2024-03-25T11:14:19;12.00;96.20
4697;DHT22;2362;50.780;0.292;2024-03-25T11:16:55;12.10;96.40
4697;DHT22;2362;50.780;0.292;2024-03-25T11:19:26;12.20;95.90
4697;DHT22;2362;50.780;0.292;2024-03-25T11:21:52;12.20;95.60
4697;DHT22;2362;50.780;0.292;2024-03-25T11:24:28;12.20;94.60
4697;DHT22;2362;50.780;0.292;2024-03-25T11:26:55;12.30;94.20
4697;DHT22;2362;50.780;0.292;2024-03-25T11:29:21;12.30;94.60
4697;DHT22;2362;50.780;0.292;2024-03-25T11:31:49;12.30;94.60
4697;DHT22;2362;50.780;0.292;2024-03-25T11:34:15;12.20;94.60
4697;DHT22;2362;50.780;0.292;2024-03-25T11:36:41;12.20;95.40
4697;DHT22;2362;50.780;0.292;2024-03-25T11:39:06;12.40;94.80
4697;DHT22;2362;50.780;0.292;2024-03-25T11:41:42;12.40;94.40
4697;DHT22;2362;50.780;0.292;2024-03-25T11:44:08;12.30;95.30
4697;DHT22;2362;50.780;0.292;2024-03-25T11:46:36;12.00;96.00
4697;DHT22;2362;50.780;0.292;2024-03-25T11:49:06;11.60;96.20
4697;DHT22;2362;50.780;0.292;2024-03-25T11:51:35;11.70;97.50
4697;DHT22;2362;50.780;0.292;2024-03-25T11:54:04;11.90;96.60
4697;DHT22;2362;50.780;0.292;2024-03-25T11:56:31;12.00;96.80
4697;DHT22;2362;50.780;0.292;2024-03-25T11:58:57;12.10;95.00
4697;DHT22;2362;50.780;0.292;2024-03-25T12:01:22;12.10;95.50
4697;DHT22;2362;50.780;0.292;2024-03-25T12:03:48;12.20;95.20
4697;DHT22;2362;50.780;0.292;2024-03-25T12:06:14;12.40;95.10
4697;DHT22;2362;50.780;0.292;2024-03-25T12:08:39;12.40;94.30
4697;DHT22;2362;50.780;0.292;2024-03-25T12:11:25;12.30;92.90
4697;DHT22;2362;50.780;0.292;2024-03-25T12:13:50;12.30;93.90
4697;DHT22;2362;50.780;0.292;2024-03-25T12:16:17;12.40;94.30
4697;DHT22;2362;50.780;0.292;2024-03-25T12:18:43;12.30;95.30
4697;DHT22;2362;50.780;0.292;2024-03-25T12:21:10;12.20;95.40
4697;DHT22;2362;50.780;0.292;2024-03-25T12:23:36;12.10;95.40
4697;DHT22;2362;50.780;0.292;2024-03-25T12:26:03;11.90;94.90
4697;DHT22;2362;50.780;0.292;2024-03-25T12:28:31;12.00;95.60
4697;DHT22;2362;50.780;0.292;2024-03-25T12:30:57;11.90;95.20
4697;DHT22;2362;50.780;0.292;2024-03-25T12:33:25;12.00;95.20
4697;DHT22;2362;50.780;0.292;2024-03-25T12:35:52;12.10;95.30
4697;DHT22;2362;50.780;0.292;2024-03-25T12:38:28;12.40;95.10
4697;DHT22;2362;50.780;0.292;2024-03-25T12:41:02;12.40;94.60
4697;DHT22;2362;50.780;0.292;2024-03-25T12:43:30;12.50;94.80
4697;DHT22;2362;50.780;0.292;2024-03-25T12:45:57;12.60;94.80
4697;DHT22;2362;50.780;0.292;2024-03-25T12:48:23;12.70;94.00
4697;DHT22;2362;50.780;0.292;2024-03-25T12:50:48;12.40;94.20
4697;DHT22;2362;50.780;0.292;2024-03-25T12:53:18;12.30;94.40
4697;DHT22;2362;50.780;0.292;2024-03-25T12:55:46;12.40;94.30
4697;DHT22;2362;50.780;0.292;2024-03-25T12:58:12;12.30;93.80
4697;DHT22;2362;50.780;0.292;2024-03-25T13:00:38;12.40;94.30
4697;DHT22;2362;50.780;0.292;2024-03-25T13:03:07;12.20;93.80
4697;DHT22;2362;50.780;0.292;2024-03-25T13:05:34;12.10;93.90
4697;DHT22;2362;50.780;0.292;2024-03-25T13:08:00;12.10;93.80
4697;DHT22;2362;50.780;0.292;2024-03-25T13:10:26;12.00;93.90
4697;DHT22;2362;50.780;0.292;2024-03-25T13:12:52;11.90;94.10
4697;DHT22;2362;50.780;0.292;2024-03-25T13:15:18;11.80;93.80
4697;DHT22;2362;50.780;0.292;2024-03-25T13:17:43;11.60;94.90
4697;DHT22;2362;50.780;0.292;2024-03-25T13:20:09;11.70;94.20
4697;DHT22;2362;50.780;0.292;2024-03-25T13:22:35;11.80;94.30
4697;DHT22;2362;50.780;0.292;2024-03-25T13:25:01;11.90;93.50
4697;DHT22;2362;50.780;0.292;2024-03-25T13:27:27;11.80;93.50
4697;DHT22;2362;50.780;0.292;2024-03-25T13:29:52;11.90;93.50
4697;DHT22;2362;50.780;0.292;2024-03-25T13:32:22;11.90;94.00
4697;DHT22;2362;50.780;0.292;2024-03-25T13:34:49;12.10;94.80
4697;DHT22;2362;50.780;0.292;2024-03-25T13:37:15;11.90;94.20
4697;DHT22;2362;50.780;0.292;2024-03-25T13:39:41;11.90;95.30
4697;DHT22;2362;50.780;0.292;2024-03-25T13:42:06;11.80;95.40
4697;DHT22;2362;50.780;0.292;2024-03-25T13:44:32;11.80;96.00
4697;DHT22;2362;50.780;0.292;2024-03-25T13:46:58;11.80;96.40
4697;DHT22;2362;50.780;0.292;2024-03-25T13:49:23;11.80;96.30
4697;DHT22;2362;50.780;0.292;2024-03-25T13:51:59;11.90;96.00
4697;DHT22;2362;50.780;0.292;2024-03-25T13:54:28;12.00;95.30
4697;DHT22;2362;50.780;0.292;2024-03-25T13:56:55;11.90;95.20
4697;DHT22;2362;50.780;0.292;2024-03-25T13:59:21;11.90;95.70
4697;DHT22;2362;50.780;0.292;2024-03-25T14:01:46;12.00;95.00
4697;DHT22;2362;50.780;0.292;2024-03-25T14:04:12;12.10;94.80
4697;DHT22;2362;50.780;0.292;2024-03-25T14:06:39;12.00;94.00
4697;DHT22;2362;50.780;0.292;2024-03-25T14:09:06;11.70;94.40
4697;DHT22;2362;50.780;0.292;2024-03-25T14:11:34;11.80;95.50
4697;DHT22;2362;50.780;0.292;2024-03-25T14:14:00;11.80;94.40
4697;DHT22;2362;50.780;0.292;2024-03-25T14:16:27;11.80;95.00
4697;DHT22;2362;50.780;0.292;2024-03-25T14:18:53;11.90;96.00
4697;DHT22;2362;50.780;0.292;2024-03-25T14:21:18;11.90;96.00
4697;DHT22;2362;50.780;0.292;2024-03-25T14:23:44;11.90;95.90
4697;DHT22;2362;50.780;0.292;2024-03-25T14:26:12;11.70;94.80
4697;DHT22;2362;50.780;0.292;2024-03-25T14:28:38;11.70;95.60
4697;DHT22;2362;50.780;0.292;2024-03-25T14:31:04;11.70;96.60
4697;DHT22;2362;50.780;0.292;2024-03-25T14:33:29;11.70;95.00
4697;DHT22;2362;50.780;0.292;2024-03-25T14:35:55;11.70;95.00
4697;DHT22;2362;50.780;0.292;2024-03-25T14:38:21;11.70;94.70
4697;DHT22;2362;50.780;0.292;2024-03-25T14:40:47;11.80;93.80
4697;DHT22;2362;50.780;0.292;2024-03-25T14:43:12;11.80;93.80
4697;DHT22;2362;50.780;0.292;2024-03-25T14:45:38;11.80;93.90
4697;DHT22;2362;50.780;0.292;2024-03-25T14:48:04;11.80;93.50
4697;DHT22;2362;50.780;0.292;2024-03-25T14:50:32;11.90;93.30
4697;DHT22;2362;50.780;0.292;2024-03-25T14:52:57;11.80;92.80
4697;DHT22;2362;50.780;0.292;2024-03-25T14:55:23;11.90;93.30
4697;DHT22;2362;50.780;0.292;2024-03-25T14:57:48;11.90;93.40
4697;DHT22;2362;50.780;0.292;2024-03-25T15:00:14;11.90;93.60
4697;DHT22;2362;50.780;0.292;2024-03-25T15:02:40;12.00;93.80
4697;DHT22;2362;50.780;0.292;2024-03-25T15:05:06;12.00;94.20
4697;DHT22;2362;50.780;0.292;2024-03-25T15:07:31;12.00;94.30
4697;DHT22;2362;50.780;0.292;2024-03-25T15:09:57;11.90;93.50
4697;DHT22;2362;50.780;0.292;2024-03-25T15:12:23;11.80;94.80
4697;DHT22;2362;50.780;0.292;2024-03-25T15:14:51;11.80;95.50
4697;DHT22;2362;50.780;0.292;2024-03-25T15:17:17;11.70;95.20
4697;DHT22;2362;50.780;0.292;2024-03-25T15:19:43;11.60;95.40
4697;DHT22;2362;50.780;0.292;2024-03-25T15:22:08;11.60;96.20
4697;DHT22;2362;50.780;0.292;2024-03-25T15:24:34;11.60;96.00
4697;DHT22;2362;50.780;0.292;2024-03-25T15:27:00;11.70;95.60
4697;DHT22;2362;50.780;0.292;2024-03-25T15:29:25;11.60;95.70
4697;DHT22;2362;50.780;0.292;2024-03-25T15:31:52;11.50;96.50
4697;DHT22;2362;50.780;0.292;2024-03-25T15:34:18;11.50;96.80
4697;DHT22;2362;50.780;0.292;2024-03-25T15:36:44;11.50;96.30
4697;DHT22;2362;50.780;0.292;2024-03-25T15:39:09;11.50;96.40
4697;DHT22;2362;50.780;0.292;2024-03-25T15:41:35;11.50;96.60
4697;DHT22;2362;50.780;0.292;2024-03-25T15:44:00;11.60;96.70
4697;DHT22;2362;50.780;0.292;2024-03-25T15:46:26;11.60;97.00
4697;DHT22;2362;50.780;0.292;2024-03-25T15:48:52;11.60;97.30
4697;DHT22;2362;50.780;0.292;2024-03-25T15:51:20;11.50;97.00
4697;DHT22;2362;50.780;0.292;2024-03-25T15:53:46;11.60;97.50
4697;DHT22;2362;50.780;0.292;2024-03-25T15:56:11;11.50;97.30
4697;DHT22;2362;50.780;0.292;2024-03-25T15:58:37;11.50;97.60
4697;DHT22;2362;50.780;0.292;2024-03-25T16:01:04;11.50;98.40
4697;DHT22;2362;50.780;0.292;2024-03-25T16:03:29;11.50;98.00
4697;DHT22;2362;50.780;0.292;2024-03-25T16:05:55;11.40;98.80
4697;DHT22;2362;50.780;0.292;2024-03-25T16:08:20;11.40;98.90